createdAt,value
2019-04-20T00:00:31.611Z,11.60
2019-04-20T00:02:58.548Z,11.60
2019-04-20T00:05:25.779Z,11.70
2019-04-20T00:07:54.098Z,11.60
2019-04-20T00:10:24.656Z,11.50
2019-04-20T00:13:05.505Z,11.50
2019-04-20T00:15:21.749Z,11.40
2019-04-20T00:17:54.256Z,11.40
2019-04-20T00:20:24.130Z,11.40
2019-04-20T00:23:05.908Z,11.40
2019-04-20T00:26:02.691Z,11.40
2019-04-20T00:28:39.770Z,11.50
2019-04-20T00:31:05.573Z,11.40
2019-04-20T00:33:34.987Z,11.40
2019-04-20T00:35:50.385Z,11.40
2019-04-20T00:38:21.034Z,11.40
2019-04-20T00:40:50.558Z,11.30
2019-04-20T00:43:24.529Z,11.20
2019-04-20T00:45:58.515Z,11.10
2019-04-20T00:48:29.757Z,11.10
2019-04-20T00:51:12.286Z,11.10
2019-04-20T00:53:25.985Z,11.20
2019-04-20T00:55:46.445Z,11.30
2019-04-20T00:58:22.284Z,11.30
2019-04-20T01:01:09.842Z,11.30
2019-04-20T01:03:29.870Z,11.30
2019-04-20T01:06:08.848Z,11.20
2019-04-20T01:08:19.261Z,11.10
2019-04-20T01:10:52.525Z,11.10
2019-04-20T01:13:20.380Z,11.00
2019-04-20T01:15:51.559Z,10.60
2019-04-20T01:18:16.880Z,10.00
2019-04-20T01:20:45.229Z,9.70
2019-04-20T01:23:19.088Z,9.40
2019-04-20T01:25:45.458Z,9.20
2019-04-20T01:28:35.478Z,9.00
2019-04-20T01:30:56.278Z,8.80
2019-04-20T01:33:28.080Z,8.60
2019-04-20T01:35:56.613Z,8.50
2019-04-20T01:38:26.350Z,8.30
2019-04-20T01:40:42.242Z,8.20
2019-04-20T01:43:10.073Z,8.00
2019-04-20T01:45:41.054Z,7.90
2019-04-20T01:48:08.286Z,7.70
2019-04-20T01:50:41.972Z,7.70
2019-04-20T01:53:16.505Z,7.50
2019-04-20T01:55:51.086Z,7.30
2019-04-20T01:58:33.718Z,7.10
2019-04-20T02:00:44.934Z,6.90
2019-04-20T02:03:36.974Z,6.70
2019-04-20T02:06:12.812Z,6.50
2019-04-20T02:08:37.823Z,6.50
2019-04-20T02:11:07.643Z,6.40
2019-04-20T02:13:44.418Z,6.30
2019-04-20T02:16:15.819Z,6.20
2019-04-20T02:18:53.852Z,6.20
2019-04-20T02:21:25.349Z,6.10
2019-04-20T02:23:45.518Z,6.10
2019-04-20T02:26:05.303Z,6.10
2019-04-20T02:29:00.881Z,6.10
2019-04-20T02:31:42.812Z,6.10
2019-04-20T02:34:15.705Z,6.20
2019-04-20T02:37:00.171Z,6.20
2019-04-20T02:39:30.861Z,6.30
2019-04-20T02:41:54.749Z,6.30
2019-04-20T02:44:23.939Z,6.30
2019-04-20T02:46:49.462Z,6.30
2019-04-20T02:51:52.632Z,6.10
2019-04-20T02:54:27.550Z,6.00
2019-04-20T02:57:02.781Z,5.90
2019-04-20T03:01:36.643Z,6.80
2019-04-20T03:03:51.137Z,7.30
2019-04-20T03:06:29.544Z,7.70
2019-04-20T03:09:10.099Z,8.10
2019-04-20T03:11:48.263Z,8.40
2019-04-20T03:14:04.695Z,8.70
2019-04-20T03:16:31.932Z,8.90
2019-04-20T03:19:03.143Z,9.10
2019-04-20T03:21:39.096Z,9.20
2019-04-20T03:24:12.752Z,9.30
2019-04-20T03:26:36.503Z,9.30
2019-04-20T03:29:05.307Z,9.30
2019-04-20T03:34:51.594Z,9.40
2019-04-20T03:36:59.281Z,9.20
2019-04-20T03:39:17.873Z,8.80
2019-04-20T03:41:36.715Z,8.30
2019-04-20T03:44:04.202Z,7.90
2019-04-20T03:46:37.581Z,7.50
2019-04-20T03:49:15.726Z,7.20
2019-04-20T03:51:48.953Z,6.90
2019-04-20T03:54:20.154Z,7.10
2019-04-20T03:57:19.773Z,7.30
2019-04-20T04:00:01.805Z,7.60
2019-04-20T04:03:02.876Z,7.90
2019-04-20T04:05:28.894Z,8.30
2019-04-20T04:07:45.547Z,8.70
2019-04-20T04:10:23.301Z,8.90
2019-04-20T04:13:05.380Z,9.00
2019-04-20T04:15:36.181Z,9.20
2019-04-20T04:18:11.029Z,9.40
2019-04-20T04:20:41.901Z,9.50
2019-04-20T04:23:22.241Z,9.60
2019-04-20T04:25:55.740Z,9.70
2019-04-20T04:28:19.554Z,9.80
2019-04-20T04:30:58.221Z,9.80
2019-04-20T04:33:47.458Z,10.00
2019-04-20T04:35:51.547Z,10.10
2019-04-20T04:38:28.941Z,10.30
2019-04-20T04:41:06.501Z,10.40
2019-04-20T04:43:28.504Z,10.40
2019-04-20T04:45:36.547Z,10.30
2019-04-20T04:48:06.754Z,10.40
2019-04-20T04:50:44.864Z,10.70
2019-04-20T04:53:09.835Z,11.10
2019-04-20T04:55:43.922Z,11.80
2019-04-20T04:58:02.595Z,12.20
2019-04-20T05:00:34.182Z,12.70
2019-04-20T05:03:22.178Z,13.00
2019-04-20T05:05:49.137Z,13.10
2019-04-20T05:08:14.425Z,13.00
2019-04-20T05:10:34.850Z,12.70
2019-04-20T05:13:02.949Z,12.50
2019-04-20T05:15:46.253Z,12.30
2019-04-20T05:18:18.344Z,12.20
2019-04-20T05:20:53.069Z,12.10
2019-04-20T05:23:21.061Z,11.90
2019-04-20T05:26:02.612Z,12.00
2019-04-20T05:28:20.267Z,12.30
2019-04-20T05:30:45.589Z,12.70
2019-04-20T05:33:19.942Z,13.40
2019-04-20T05:36:01.845Z,14.20
2019-04-20T05:38:37.027Z,14.70
2019-04-20T05:40:59.809Z,15.00
2019-04-20T05:43:27.517Z,15.20
2019-04-20T05:45:55.580Z,15.40
2019-04-20T05:48:25.649Z,15.40
2019-04-20T05:50:58.728Z,15.00
2019-04-20T05:53:37.054Z,14.60
2019-04-20T05:55:54.451Z,14.00
2019-04-20T05:58:35.821Z,13.60
2019-04-20T06:01:05.588Z,13.30
2019-04-20T06:03:29.591Z,13.10
2019-04-20T06:06:03.779Z,13.00
2019-04-20T06:08:40.304Z,12.90
2019-04-20T06:11:04.628Z,12.80
2019-04-20T06:13:27.719Z,12.90
2019-04-20T06:16:08.886Z,13.00
2019-04-20T06:18:35.413Z,13.00
2019-04-20T06:21:19.975Z,13.20
2019-04-20T06:23:59.459Z,13.30
2019-04-20T06:26:41.827Z,13.40
2019-04-20T06:28:46.393Z,13.50
2019-04-20T06:31:26.594Z,13.60
2019-04-20T06:36:57.991Z,13.80
2019-04-20T06:39:37.038Z,13.90
2019-04-20T06:42:14.746Z,14.00
2019-04-20T06:44:32.102Z,14.10
2019-04-20T06:47:08.981Z,14.10
2019-04-20T06:49:34.080Z,14.20
2019-04-20T06:52:04.538Z,14.40
2019-04-20T06:54:35.612Z,14.40
2019-04-20T06:57:08.115Z,14.50
2019-04-20T06:59:38.999Z,14.50
2019-04-20T07:02:11.201Z,14.70
2019-04-20T07:04:44.059Z,14.70
2019-04-20T07:07:10.968Z,14.80
2019-04-20T07:09:48.419Z,14.90
2019-04-20T07:12:02.841Z,14.90
2019-04-20T07:14:25.764Z,15.00
2019-04-20T07:17:21.921Z,15.00
2019-04-20T07:19:40.331Z,15.10
2019-04-20T07:22:24.984Z,15.10
2019-04-20T07:24:55.092Z,15.10
2019-04-20T07:27:12.424Z,15.20
2019-04-20T07:29:54.937Z,15.40
2019-04-20T07:32:10.022Z,15.40
2019-04-20T07:34:47.469Z,15.50
2019-04-20T07:37:52.937Z,15.60
2019-04-20T07:39:58.909Z,15.80
2019-04-20T07:42:32.849Z,16.00
2019-04-20T07:45:01.027Z,16.20
2019-04-20T07:47:32.861Z,16.40
2019-04-20T07:49:52.586Z,16.60
2019-04-20T07:52:02.458Z,16.70
2019-04-20T07:55:12.144Z,16.70
2019-04-20T07:57:20.963Z,16.80
2019-04-20T07:59:55.158Z,16.90
2019-04-20T08:02:35.094Z,17.00
2019-04-20T08:05:03.412Z,17.00
2019-04-20T08:07:14.617Z,17.00
2019-04-20T08:09:51.311Z,17.10
2019-04-20T08:12:48.970Z,17.30
2019-04-20T08:15:13.312Z,17.40
2019-04-20T08:17:48.466Z,17.50
2019-04-20T08:20:07.600Z,17.70
2019-04-20T08:22:46.653Z,17.80
2019-04-20T08:25:02.102Z,17.90
2019-04-20T08:27:21.384Z,18.00
2019-04-20T08:30:02.011Z,18.20
2019-04-20T08:32:53.971Z,18.30
2019-04-20T08:35:32.037Z,18.40
2019-04-20T08:38:14.754Z,18.50
2019-04-20T08:40:31.418Z,18.60
2019-04-20T08:43:10.757Z,18.70
2019-04-20T08:45:34.641Z,18.80
2019-04-20T08:48:09.860Z,19.00
2019-04-20T08:50:31.254Z,19.10
2019-04-20T08:53:08.950Z,19.20
2019-04-20T08:55:23.802Z,19.40
2019-04-20T08:57:39.880Z,19.40
2019-04-20T09:00:11.152Z,19.40
2019-04-20T09:02:41.266Z,19.50
2019-04-20T09:05:24.852Z,19.60
2019-04-20T09:07:54.217Z,19.80
2019-04-20T09:10:34.410Z,19.80
2019-04-20T09:12:53.205Z,19.70
2019-04-20T09:15:10.528Z,19.70
2019-04-20T09:17:47.538Z,19.80
2019-04-20T09:20:23.090Z,19.80
2019-04-20T09:22:58.299Z,19.80
2019-04-20T09:28:07.425Z,19.90
2019-04-20T09:30:37.489Z,20.10
2019-04-20T09:33:33.895Z,20.10
2019-04-20T09:35:57.646Z,20.20
2019-04-20T09:38:28.766Z,20.30
2019-04-20T09:40:55.489Z,20.40
2019-04-20T09:43:30.383Z,20.40
2019-04-20T09:46:02.097Z,20.50
2019-04-20T09:48:38.147Z,20.60
2019-04-20T09:51:16.873Z,20.80
2019-04-20T09:53:39.235Z,21.00
2019-04-20T09:56:15.770Z,21.00
2019-04-20T09:58:50.995Z,20.90
2019-04-20T10:01:09.945Z,20.90
2019-04-20T10:03:29.043Z,21.00
2019-04-20T10:05:57.232Z,21.10
2019-04-20T10:08:25.970Z,21.10
2019-04-20T10:10:54.437Z,21.20
2019-04-20T10:13:25.159Z,21.30
2019-04-20T10:15:53.452Z,21.50
2019-04-20T10:18:21.868Z,21.60
2019-04-20T10:20:49.677Z,21.60
2019-04-20T10:23:18.468Z,21.70
2019-04-20T10:25:46.798Z,21.80
2019-04-20T10:28:14.310Z,21.80
2019-04-20T10:30:42.147Z,21.90
2019-04-20T10:33:09.937Z,21.90
2019-04-20T10:35:37.287Z,22.00
2019-04-20T10:38:07.479Z,22.10
2019-04-20T10:40:56.225Z,22.00
2019-04-20T10:43:14.234Z,21.80
2019-04-20T10:45:42.008Z,21.90
2019-04-20T10:48:09.427Z,21.80
2019-04-20T10:50:37.082Z,21.90
2019-04-20T10:53:05.775Z,21.90
2019-04-20T10:55:33.644Z,22.00
2019-04-20T10:58:01.719Z,22.00
2019-04-20T11:00:44.055Z,22.00
2019-04-20T11:03:15.718Z,22.10
2019-04-20T11:05:44.619Z,22.20
2019-04-20T11:08:13.142Z,22.20
2019-04-20T11:10:55.347Z,22.20
2019-04-20T11:13:12.221Z,22.20
2019-04-20T11:15:39.794Z,22.30
2019-04-20T11:18:09.245Z,22.30
2019-04-20T11:20:37.302Z,22.30
2019-04-20T11:23:06.488Z,22.30
2019-04-20T11:25:34.413Z,22.30
2019-04-20T11:28:01.880Z,22.40
2019-04-20T11:30:30.157Z,22.50
2019-04-20T11:32:58.082Z,22.50
2019-04-20T11:35:31.212Z,22.50
2019-04-20T11:37:55.464Z,22.50
2019-04-20T11:40:23.413Z,22.50
2019-04-20T11:42:50.975Z,22.50
2019-04-20T11:45:20.452Z,22.50
2019-04-20T11:47:47.902Z,22.60
2019-04-20T11:50:16.150Z,22.70
2019-04-20T11:52:47.394Z,22.80
2019-04-20T11:55:12.992Z,22.90
2019-04-20T11:57:40.172Z,23.00
2019-04-20T12:00:13.119Z,23.20
2019-04-20T12:02:45.849Z,23.20
2019-04-20T12:05:24.966Z,23.10
2019-04-20T12:08:05.093Z,23.10
2019-04-20T12:10:33.128Z,23.10
2019-04-20T12:13:01.784Z,23.10
2019-04-20T12:15:32.150Z,23.20
2019-04-20T12:17:59.973Z,23.30
2019-04-20T12:20:27.226Z,23.40
2019-04-20T12:22:54.744Z,23.40
2019-04-20T12:25:22.233Z,23.40
2019-04-20T12:27:54.045Z,23.30
2019-04-20T12:30:21.790Z,23.30
2019-04-20T12:32:55.147Z,23.40
2019-04-20T12:35:20.643Z,23.50
2019-04-20T12:37:49.201Z,23.60
2019-04-20T12:40:21.870Z,23.60
2019-04-20T12:42:50.935Z,23.60
2019-04-20T12:45:21.827Z,23.70
2019-04-20T12:47:51.409Z,23.70
2019-04-20T12:50:21.476Z,23.60
2019-04-20T12:52:59.883Z,23.70
2019-04-20T12:55:28.378Z,23.80
2019-04-20T12:57:56.704Z,23.80
2019-04-20T13:00:49.243Z,23.90
2019-04-20T13:03:17.289Z,23.70
2019-04-20T13:05:45.858Z,23.80
2019-04-20T13:08:21.808Z,23.70
2019-04-20T13:10:46.826Z,23.60
2019-04-20T13:13:16.588Z,23.60
2019-04-20T13:15:46.681Z,23.60
2019-04-20T13:18:25.407Z,23.70
2019-04-20T13:20:56.168Z,23.70
2019-04-20T13:23:22.571Z,23.70
2019-04-20T13:25:50.840Z,23.80
2019-04-20T13:28:21.143Z,23.90
2019-04-20T13:30:48.487Z,24.00
2019-04-20T13:33:15.947Z,24.00
2019-04-20T13:35:46.112Z,23.90
2019-04-20T13:38:14.128Z,23.90
2019-04-20T13:40:43.958Z,23.90
2019-04-20T13:43:12.077Z,23.90
2019-04-20T13:45:40.968Z,23.90
2019-04-20T13:48:08.893Z,24.00
2019-04-20T13:50:38.176Z,24.00
2019-04-20T13:53:07.396Z,24.00
2019-04-20T13:55:36.327Z,24.00
2019-04-20T13:58:09.882Z,24.10
2019-04-20T14:00:52.479Z,24.00
2019-04-20T14:03:21.226Z,24.00
2019-04-20T14:05:50.834Z,23.90
2019-04-20T14:08:25.309Z,23.90
2019-04-20T14:10:53.508Z,23.90
2019-04-20T14:13:23.845Z,23.80
2019-04-20T14:15:51.266Z,23.90
2019-04-20T14:18:19.461Z,24.00
2019-04-20T14:20:47.923Z,24.00
2019-04-20T14:23:17.025Z,24.10
2019-04-20T14:25:45.091Z,24.10
2019-04-20T14:28:13.235Z,24.10
2019-04-20T14:30:40.737Z,24.00
2019-04-20T14:33:08.573Z,23.90
2019-04-20T14:35:37.087Z,24.00
2019-04-20T14:38:05.789Z,24.10
2019-04-20T14:40:36.644Z,24.10
2019-04-20T14:43:04.284Z,24.10
2019-04-20T14:45:32.746Z,24.00
2019-04-20T14:48:01.684Z,24.10
2019-04-20T14:50:29.846Z,24.10
2019-04-20T14:52:57.657Z,24.10
2019-04-20T14:55:25.868Z,24.10
2019-04-20T14:57:55.313Z,24.10
2019-04-20T15:00:54.954Z,24.00
2019-04-20T15:03:30.541Z,24.00
2019-04-20T15:06:00.138Z,23.90
2019-04-20T15:08:27.826Z,23.80
2019-04-20T15:10:56.702Z,23.80
2019-04-20T15:13:24.642Z,23.90
2019-04-20T15:15:52.681Z,23.90
2019-04-20T15:18:23.770Z,23.90
2019-04-20T15:20:53.386Z,23.80
2019-04-20T15:23:23.732Z,23.80
2019-04-20T15:25:51.026Z,23.90
2019-04-20T15:28:20.659Z,24.00
2019-04-20T15:30:49.979Z,24.00
2019-04-20T15:33:18.876Z,24.10
2019-04-20T15:35:46.497Z,24.10
2019-04-20T15:38:13.737Z,24.00
2019-04-20T15:40:41.474Z,24.00
2019-04-20T15:43:14.438Z,23.90
2019-04-20T15:45:39.162Z,23.80
2019-04-20T15:48:07.846Z,23.80
2019-04-20T15:50:36.000Z,23.80
2019-04-20T15:53:05.947Z,23.70
2019-04-20T15:55:37.706Z,23.80
2019-04-20T15:58:06.547Z,23.70
2019-04-20T16:00:34.217Z,23.70
2019-04-20T16:03:12.493Z,23.60
2019-04-20T16:05:42.879Z,23.60
2019-04-20T16:08:30.283Z,23.60
2019-04-20T16:10:59.250Z,23.60
2019-04-20T16:13:35.107Z,23.60
2019-04-20T16:15:57.987Z,23.60
2019-04-20T16:18:27.292Z,23.50
2019-04-20T16:21:04.962Z,23.50
2019-04-20T16:23:25.044Z,23.40
2019-04-20T16:25:57.584Z,23.30
2019-04-20T16:28:25.964Z,23.30
2019-04-20T16:30:53.843Z,23.30
2019-04-20T16:33:21.223Z,23.20
2019-04-20T16:35:48.584Z,23.20
2019-04-20T16:38:16.160Z,23.20
2019-04-20T16:40:44.348Z,23.20
2019-04-20T16:43:20.922Z,23.10
2019-04-20T16:45:43.033Z,23.00
2019-04-20T16:48:10.573Z,22.90
2019-04-20T16:50:38.033Z,22.80
2019-04-20T16:53:06.539Z,22.80
2019-04-20T16:55:34.869Z,22.70
2019-04-20T16:58:03.918Z,22.60
2019-04-20T17:00:31.695Z,22.40
2019-04-20T17:03:00.427Z,22.30
2019-04-20T17:05:29.164Z,22.20
2019-04-20T17:08:00.721Z,22.10
2019-04-20T17:10:28.895Z,21.90
2019-04-20T17:12:57.788Z,21.80
2019-04-20T17:15:25.642Z,21.70
2019-04-20T17:17:54.998Z,21.60
2019-04-20T17:20:24.902Z,21.60
2019-04-20T17:22:51.563Z,21.40
2019-04-20T17:25:19.788Z,21.30
2019-04-20T17:28:07.047Z,21.30
2019-04-20T17:30:50.879Z,21.20
2019-04-20T17:33:27.952Z,21.10
2019-04-20T17:36:05.501Z,20.90
2019-04-20T17:38:34.779Z,20.70
2019-04-20T17:41:11.855Z,20.60
2019-04-20T17:43:31.416Z,20.40
2019-04-20T17:46:00.530Z,20.20
2019-04-20T17:48:34.923Z,20.00
2019-04-20T17:51:13.673Z,19.80
2019-04-20T17:53:37.452Z,19.60
2019-04-20T17:55:57.243Z,19.50
2019-04-20T17:58:29.164Z,19.40
2019-04-20T18:01:13.543Z,19.20
2019-04-20T18:06:19.877Z,19.00
2019-04-20T18:08:49.409Z,18.90
2019-04-20T18:11:12.719Z,18.70
2019-04-20T18:13:35.894Z,18.60
2019-04-20T18:16:29.496Z,18.40
2019-04-20T18:19:03.253Z,18.30
2019-04-20T18:21:24.435Z,18.20
2019-04-20T18:23:51.952Z,18.10
2019-04-20T18:26:39.535Z,18.00
2019-04-20T18:29:10.622Z,17.80
2019-04-20T18:31:25.890Z,17.80
2019-04-20T18:33:56.179Z,17.80
2019-04-20T18:36:30.864Z,17.80
2019-04-20T18:38:58.827Z,17.70
2019-04-20T18:41:31.931Z,17.60
2019-04-20T18:43:55.900Z,17.60
2019-04-20T18:46:44.053Z,17.50
2019-04-20T18:49:11.361Z,17.30
2019-04-20T18:51:21.670Z,17.30
2019-04-20T18:53:50.462Z,17.30
2019-04-20T18:56:25.662Z,17.30
2019-04-20T18:58:47.488Z,17.20
2019-04-20T19:01:15.232Z,17.10
2019-04-20T19:03:45.551Z,17.10
2019-04-20T19:06:12.449Z,17.00
2019-04-20T19:08:46.130Z,16.90
2019-04-20T19:11:15.097Z,16.80
2019-04-20T19:13:44.535Z,16.80
2019-04-20T19:16:25.566Z,16.70
2019-04-20T19:19:04.214Z,16.60
2019-04-20T19:21:19.670Z,16.50
2019-04-20T19:23:55.715Z,16.50
2019-04-20T19:26:21.214Z,16.50
2019-04-20T19:28:53.946Z,16.40
2019-04-20T19:31:33.983Z,16.30
2019-04-20T19:34:06.238Z,16.20
2019-04-20T19:36:26.316Z,16.20
2019-04-20T19:39:01.695Z,16.10
2019-04-20T19:41:29.712Z,15.90
2019-04-20T19:43:57.964Z,15.80
2019-04-20T19:46:46.263Z,15.70
2019-04-20T19:48:56.696Z,15.60
2019-04-20T19:51:38.544Z,15.50
2019-04-20T19:54:11.054Z,15.40
2019-04-20T19:56:33.689Z,15.30
2019-04-20T19:58:58.991Z,15.20
2019-04-20T20:01:15.679Z,15.10
2019-04-20T20:03:43.746Z,15.00
2019-04-20T20:06:23.843Z,14.90
2019-04-20T20:08:46.997Z,14.80
2019-04-20T20:11:21.773Z,14.60
2019-04-20T20:13:46.478Z,14.50
2019-04-20T20:16:20.372Z,14.50
2019-04-20T20:18:53.281Z,14.40
2019-04-20T20:21:23.548Z,14.40
2019-04-20T20:23:41.811Z,14.40
2019-04-20T20:26:18.872Z,14.40
2019-04-20T20:28:46.506Z,14.30
2019-04-20T20:31:21.824Z,14.30
2019-04-20T20:33:56.137Z,14.30
2019-04-20T20:36:13.969Z,14.20
2019-04-20T20:38:43.692Z,14.10
2019-04-20T20:41:18.369Z,14.10
2019-04-20T20:43:49.608Z,14.00
2019-04-20T20:46:19.702Z,14.00
2019-04-20T20:48:55.624Z,13.90
2019-04-20T20:51:28.052Z,13.80
2019-04-20T20:53:48.687Z,13.70
2019-04-20T20:56:15.525Z,13.60
2019-04-20T20:58:48.473Z,13.50
2019-04-20T21:01:15.710Z,13.20
2019-04-20T21:03:42.059Z,12.90
2019-04-20T21:06:07.535Z,12.80
2019-04-20T21:08:36.314Z,12.50
2019-04-20T21:11:15.237Z,12.10
2019-04-20T21:13:42.258Z,11.60
2019-04-20T21:16:12.995Z,11.20
2019-04-20T21:18:50.384Z,10.80
2019-04-20T21:21:19.262Z,10.60
2019-04-20T21:23:42.822Z,10.30
2019-04-20T21:26:12.711Z,10.10
2019-04-20T21:28:41.770Z,9.90
2019-04-20T21:31:14.626Z,9.70
2019-04-20T21:33:40.538Z,9.60
2019-04-20T21:36:09.216Z,9.50
2019-04-20T21:38:40.848Z,9.40
2019-04-20T21:41:11.310Z,9.30
2019-04-20T21:43:42.303Z,9.20
2019-04-20T21:46:10.271Z,9.20
2019-04-20T21:48:54.245Z,9.00
2019-04-20T21:51:23.301Z,9.00
2019-04-20T21:53:37.863Z,9.00
2019-04-20T21:56:07.996Z,9.00
2019-04-20T21:58:43.580Z,8.90
2019-04-20T22:01:17.606Z,8.90
2019-04-20T22:03:36.397Z,8.90
2019-04-20T22:06:06.852Z,8.80
2019-04-20T22:08:39.146Z,8.80
2019-04-20T22:11:05.928Z,8.70
2019-04-20T22:13:39.435Z,8.60
2019-04-20T22:16:07.230Z,8.50
2019-04-20T22:18:47.383Z,8.40
2019-04-20T22:21:13.242Z,8.40
2019-04-20T22:23:51.440Z,8.30
2019-04-20T22:26:17.606Z,8.30
2019-04-20T22:28:36.211Z,8.30
2019-04-20T22:31:04.224Z,8.20
2019-04-20T22:33:40.993Z,8.10
2019-04-20T22:36:09.449Z,8.10
2019-04-20T22:38:58.325Z,8.10
2019-04-20T22:41:27.695Z,8.20
2019-04-20T22:43:54.702Z,8.20
2019-04-20T22:46:24.756Z,8.20
2019-04-20T22:49:15.494Z,8.10
2019-04-20T22:51:32.759Z,8.00
2019-04-20T22:54:05.732Z,7.90
2019-04-20T22:56:39.712Z,7.80
2019-04-20T22:59:02.110Z,7.70
2019-04-20T23:01:31.358Z,7.70
2019-04-20T23:03:52.764Z,7.60
2019-04-20T23:06:20.803Z,7.60
2019-04-20T23:08:57.579Z,7.50
2019-04-20T23:11:26.396Z,7.60
2019-04-20T23:13:51.415Z,7.50
2019-04-20T23:16:18.069Z,7.40
2019-04-20T23:18:46.400Z,7.30
2019-04-20T23:21:17.330Z,7.10
2019-04-20T23:23:43.752Z,7.00
2019-04-20T23:26:12.661Z,7.00
2019-04-20T23:28:49.422Z,6.90
2019-04-20T23:31:16.765Z,6.90
2019-04-20T23:33:40.910Z,6.80
2019-04-20T23:36:09.780Z,6.70
2019-04-20T23:38:38.969Z,6.60
2019-04-20T23:41:08.008Z,6.60
2019-04-20T23:43:39.310Z,6.50
2019-04-20T23:46:26.015Z,6.50
2019-04-20T23:48:54.181Z,6.50
2019-04-20T23:51:46.730Z,6.40
2019-04-20T23:54:03.025Z,6.40
2019-04-20T23:56:23.612Z,6.40
2019-04-20T23:58:54.529Z,6.30
